sensor_id;sensor_type;location;lat;lon;timestamp;pressure;altitude;pressure_sealevel;temperature;humidity
36748;BME280;22716;51.556;5.080;2023-04-01T00:01:26;98458.16;;;9.97;100.00
36748;BME280;22716;51.556;5.080;2023-04-01T00:03:54;98461.56;;;9.99;100.00
36748;BME280;22716;51.556;5.080;2023-04-01T00:06:24;98457.13;;;10.01;100.00
36748;BME280;22716;51.556;5.080;2023-04-01T00:08:53;98464.03;;;10.02;100.00
36748;BME280;22716;51.556;5.080;2023-04-01T00:11:23;98453.06;;;9.94;100.00
36748;BME280;22716;51.556;5.080;2023-04-01T00:13:55;98459.34;;;9.90;100.00
36748;BME280;22716;51.556;5.080;2023-04-01T00:16:24;98466.78;;;9.99;100.00
36748;BME280;22716;51.556;5.080;2023-04-01T00:18:52;98470.25;;;9.99;100.00
36748;BME280;22716;51.556;5.080;2023-04-01T00:21:22;98479.81;;;10.00;100.00
36748;BME280;22716;51.556;5.080;2023-04-01T00:23:50;98481.47;;;10.01;100.00
36748;BME280;22716;51.556;5.080;2023-04-01T00:26:20;98478.81;;;10.03;100.00
36748;BME280;22716;51.556;5.080;2023-04-01T00:28:50;98483.91;;;10.06;100.00
36748;BME280;22716;51.556;5.080;2023-04-01T00:31:21;98475.25;;;10.04;100.00
36748;BME280;22716;51.556;5.080;2023-04-01T00:33:51;98482.19;;;10.05;100.00
36748;BME280;22716;51.556;5.080;2023-04-01T00:36:21;98484.06;;;10.03;100.00
36748;BME280;22716;51.556;5.080;2023-04-01T00:38:50;98490.97;;;10.04;100.00
36748;BME280;22716;51.556;5.080;2023-04-01T00:41:19;98478.09;;;9.99;100.00
36748;BME280;22716;51.556;5.080;2023-04-01T00:43:50;98469.19;;;9.85;100.00
36748;BME280;22716;51.556;5.080;2023-04-01T00:46:21;98490.31;;;9.99;100.00
36748;BME280;22716;51.556;5.080;2023-04-01T00:48:52;98489.47;;;9.98;100.00
36748;BME280;22716;51.556;5.080;2023-04-01T00:51:27;98491.31;;;9.96;100.00
36748;BME280;22716;51.556;5.080;2023-04-01T00:53:59;98504.34;;;9.98;100.00
36748;BME280;22716;51.556;5.080;2023-04-01T00:56:32;98499.31;;;9.93;100.00
36748;BME280;22716;51.556;5.080;2023-04-01T00:59:04;98512.25;;;9.96;100.00
36748;BME280;22716;51.556;5.080;2023-04-01T01:01:39;98512.38;;;9.93;100.00
36748;BME280;22716;51.556;5.080;2023-04-01T01:04:21;98496.19;;;9.85;100.00
36748;BME280;22716;51.556;5.080;2023-04-01T01:06:55;98509.91;;;9.90;100.00
36748;BME280;22716;51.556;5.080;2023-04-01T01:09:30;98510.81;;;9.89;100.00
36748;BME280;22716;51.556;5.080;2023-04-01T01:12:07;98515.25;;;9.87;100.00
36748;BME280;22716;51.556;5.080;2023-04-01T01:14:48;98526.94;;;9.80;100.00
36748;BME280;22716;51.556;5.080;2023-04-01T01:17:32;98524.31;;;9.80;100.00
36748;BME280;22716;51.556;5.080;2023-04-01T01:23:28;98525.13;;;9.81;100.00
36748;BME280;22716;51.556;5.080;2023-04-01T01:29:10;98527.69;;;9.82;100.00
36748;BME280;22716;51.556;5.080;2023-04-01T01:31:53;98505.06;;;9.63;100.00
36748;BME280;22716;51.556;5.080;2023-04-01T01:34:29;98509.06;;;9.70;100.00
36748;BME280;22716;51.556;5.080;2023-04-01T01:37:08;98521.16;;;9.72;100.00
36748;BME280;22716;51.556;5.080;2023-04-01T01:39:40;98521.16;;;9.72;100.00
36748;BME280;22716;51.556;5.080;2023-04-01T01:42:15;98502.63;;;9.58;100.00
36748;BME280;22716;51.556;5.080;2023-04-01T01:44:47;98534.19;;;9.74;100.00
36748;BME280;22716;51.556;5.080;2023-04-01T01:47:19;98531.63;;;9.72;100.00
36748;BME280;22716;51.556;5.080;2023-04-01T01:49:50;98535.09;;;9.73;100.00
36748;BME280;22716;51.556;5.080;2023-04-01T01:52:23;98540.53;;;9.68;100.00
36748;BME280;22716;51.556;5.080;2023-04-01T01:54:54;98526.22;;;9.56;100.00
36748;BME280;22716;51.556;5.080;2023-04-01T01:57:24;98544.91;;;9.68;100.00
36748;BME280;22716;51.556;5.080;2023-04-01T01:59:58;98539.84;;;9.63;100.00
36748;BME280;22716;51.556;5.080;2023-04-01T02:02:28;98553.00;;;9.62;100.00
36748;BME280;22716;51.556;5.080;2023-04-01T02:04:58;98546.16;;;9.59;100.00
36748;BME280;22716;51.556;5.080;2023-04-01T02:07:32;98554.91;;;9.58;100.00
36748;BME280;22716;51.556;5.080;2023-04-01T02:10:02;98559.53;;;9.51;100.00
36748;BME280;22716;51.556;5.080;2023-04-01T02:12:33;98552.63;;;9.50;100.00
36748;BME280;22716;51.556;5.080;2023-04-01T02:15:06;98555.16;;;9.52;100.00
36748;BME280;22716;51.556;5.080;2023-04-01T02:17:39;98558.56;;;9.54;100.00
36748;BME280;22716;51.556;5.080;2023-04-01T02:20:11;98558.63;;;9.52;100.00
36748;BME280;22716;51.556;5.080;2023-04-01T02:22:48;98543.66;;;9.36;100.00
36748;BME280;22716;51.556;5.080;2023-04-01T02:25:20;98567.59;;;9.47;100.00
36748;BME280;22716;51.556;5.080;2023-04-01T02:27:50;98568.44;;;9.47;100.00
36748;BME280;22716;51.556;5.080;2023-04-01T02:30:19;98565.88;;;9.46;100.00
36748;BME280;22716;51.556;5.080;2023-04-01T02:32:49;98546.97;;;9.39;100.00
36748;BME280;22716;51.556;5.080;2023-04-01T02:35:18;98546.19;;;9.37;100.00
36748;BME280;22716;51.556;5.080;2023-04-01T02:37:52;98568.31;;;9.50;100.00
36748;BME280;22716;51.556;5.080;2023-04-01T02:40:21;98569.22;;;9.49;100.00
36748;BME280;22716;51.556;5.080;2023-04-01T02:42:50;98569.22;;;9.49;100.00
36748;BME280;22716;51.556;5.080;2023-04-01T02:45:19;98583.00;;;9.53;100.00
36748;BME280;22716;51.556;5.080;2023-04-01T02:47:48;98575.34;;;9.48;100.00
36748;BME280;22716;51.556;5.080;2023-04-01T02:50:16;98570.13;;;9.48;100.00
36748;BME280;22716;51.556;5.080;2023-04-01T02:52:45;98583.88;;;9.53;100.00
36748;BME280;22716;51.556;5.080;2023-04-01T02:55:16;98571.19;;;9.44;100.00
36748;BME280;22716;51.556;5.080;2023-04-01T02:57:45;98573.06;;;9.41;100.00
36748;BME280;22716;51.556;5.080;2023-04-01T03:00:16;98580.78;;;9.44;100.00
36748;BME280;22716;51.556;5.080;2023-04-01T03:02:45;98586.06;;;9.42;100.00
36748;BME280;22716;51.556;5.080;2023-04-01T03:05:14;98590.38;;;9.43;100.00
36748;BME280;22716;51.556;5.080;2023-04-01T03:07:42;98591.41;;;9.39;100.00
36748;BME280;22716;51.556;5.080;2023-04-01T03:10:11;98600.06;;;9.41;100.00
36748;BME280;22716;51.556;5.080;2023-04-01T03:12:43;98588.88;;;9.38;100.00
36748;BME280;22716;51.556;5.080;2023-04-01T03:15:12;98597.69;;;9.35;100.00
36748;BME280;22716;51.556;5.080;2023-04-01T03:17:42;98597.63;;;9.37;100.00
36748;BME280;22716;51.556;5.080;2023-04-01T03:20:13;98589.97;;;9.32;100.00
36748;BME280;22716;51.556;5.080;2023-04-01T03:22:42;98603.91;;;9.33;100.00
36748;BME280;22716;51.556;5.080;2023-04-01T03:25:11;98615.34;;;9.30;100.00
36748;BME280;22716;51.556;5.080;2023-04-01T03:27:42;98613.63;;;9.29;100.00
36748;BME280;22716;51.556;5.080;2023-04-01T03:30:12;98609.41;;;9.25;100.00
36748;BME280;22716;51.556;5.080;2023-04-01T03:32:40;98618.00;;;9.29;100.00
36748;BME280;22716;51.556;5.080;2023-04-01T03:35:09;98618.00;;;9.29;100.00
36748;BME280;22716;51.556;5.080;2023-04-01T03:37:40;98620.72;;;9.26;100.00
36748;BME280;22716;51.556;5.080;2023-04-01T03:40:10;98628.63;;;9.24;100.00
36748;BME280;22716;51.556;5.080;2023-04-01T03:42:39;98631.38;;;9.21;100.00
36748;BME280;22716;51.556;5.080;2023-04-01T03:45:11;98615.00;;;9.16;100.00
36748;BME280;22716;51.556;5.080;2023-04-01T03:47:40;98613.38;;;9.14;100.00
36748;BME280;22716;51.556;5.080;2023-04-01T03:50:10;98632.19;;;9.22;100.00
36748;BME280;22716;51.556;5.080;2023-04-01T03:52:39;98625.28;;;9.21;100.00
36748;BME280;22716;51.556;5.080;2023-04-01T03:55:08;98633.28;;;9.16;100.00
36748;BME280;22716;51.556;5.080;2023-04-01T03:57:39;98631.53;;;9.17;100.00
36748;BME280;22716;51.556;5.080;2023-04-01T04:00:12;98634.22;;;9.15;100.00
36748;BME280;22716;51.556;5.080;2023-04-01T04:02:41;98641.22;;;9.15;100.00
36748;BME280;22716;51.556;5.080;2023-04-01T04:05:09;98639.50;;;9.14;100.00
36748;BME280;22716;51.556;5.080;2023-04-01T04:07:38;98597.94;;;8.86;100.00
36748;BME280;22716;51.556;5.080;2023-04-01T04:10:08;98638.75;;;9.10;100.00
36748;BME280;22716;51.556;5.080;2023-04-01T04:12:37;98650.13;;;9.09;100.00
36748;BME280;22716;51.556;5.080;2023-04-01T04:15:07;98657.97;;;9.09;100.00
36748;BME280;22716;51.556;5.080;2023-04-01T04:17:38;98652.09;;;9.04;100.00
36748;BME280;22716;51.556;5.080;2023-04-01T04:20:08;98661.44;;;9.10;100.00
36748;BME280;22716;51.556;5.080;2023-04-01T04:22:37;98670.19;;;9.09;100.00
36748;BME280;22716;51.556;5.080;2023-04-01T04:25:07;98653.84;;;9.04;100.00
36748;BME280;22716;51.556;5.080;2023-04-01T04:27:36;98660.81;;;9.03;100.00
36748;BME280;22716;51.556;5.080;2023-04-01T04:30:09;98673.75;;;9.06;100.00
36748;BME280;22716;51.556;5.080;2023-04-01T04:32:40;98672.00;;;9.07;100.00
36748;BME280;22716;51.556;5.080;2023-04-01T04:35:09;98669.69;;;8.99;100.00
36748;BME280;22716;51.556;5.080;2023-04-01T04:37:38;98677.41;;;9.02;100.00
36748;BME280;22716;51.556;5.080;2023-04-01T04:40:08;98674.75;;;9.04;100.00
36748;BME280;22716;51.556;5.080;2023-04-01T04:42:37;98684.38;;;9.01;100.00
36748;BME280;22716;51.556;5.080;2023-04-01T04:45:06;98685.19;;;9.04;100.00
36748;BME280;22716;51.556;5.080;2023-04-01T04:47:35;98687.91;;;9.00;100.00
36748;BME280;22716;51.556;5.080;2023-04-01T04:50:09;98689.56;;;9.03;100.00
36748;BME280;22716;51.556;5.080;2023-04-01T04:52:38;98693.06;;;9.02;100.00
36748;BME280;22716;51.556;5.080;2023-04-01T04:55:08;98695.69;;;9.02;100.00
36748;BME280;22716;51.556;5.080;2023-04-01T04:57:36;98707.97;;;9.00;100.00
36748;BME280;22716;51.556;5.080;2023-04-01T05:00:07;98700.91;;;9.02;100.00
36748;BME280;22716;51.556;5.080;2023-04-01T05:02:37;98705.38;;;8.98;100.00
36748;BME280;22716;51.556;5.080;2023-04-01T05:05:08;98706.47;;;8.93;100.00
36748;BME280;22716;51.556;5.080;2023-04-01T05:07:39;98707.09;;;8.99;100.00
36748;BME280;22716;51.556;5.080;2023-04-01T05:10:09;98717.53;;;8.99;100.00
36748;BME280;22716;51.556;5.080;2023-04-01T05:12:38;98729.63;;;9.02;100.00
36748;BME280;22716;51.556;5.080;2023-04-01T05:15:08;98719.38;;;8.97;100.00
36748;BME280;22716;51.556;5.080;2023-04-01T05:17:37;98733.06;;;9.04;100.00
36748;BME280;22716;51.556;5.080;2023-04-01T05:20:11;98732.31;;;9.00;100.00
36748;BME280;22716;51.556;5.080;2023-04-01T05:22:40;98744.53;;;9.00;100.00
36748;BME280;22716;51.556;5.080;2023-04-01T05:25:09;98741.94;;;8.98;100.00
36748;BME280;22716;51.556;5.080;2023-04-01T05:27:38;98753.09;;;9.04;100.00
36748;BME280;22716;51.556;5.080;2023-04-01T05:30:08;98754.84;;;9.03;100.00
36748;BME280;22716;51.556;5.080;2023-04-01T05:32:36;98757.34;;;9.06;100.00
36748;BME280;22716;51.556;5.080;2023-04-01T05:35:09;98762.63;;;9.05;100.00
36748;BME280;22716;51.556;5.080;2023-04-01T05:37:38;98755.81;;;9.00;100.00
36748;BME280;22716;51.556;5.080;2023-04-01T05:40:09;98763.38;;;9.08;100.00
36748;BME280;22716;51.556;5.080;2023-04-01T05:42:37;98766.75;;;9.10;100.00
36748;BME280;22716;51.556;5.080;2023-04-01T05:45:08;98772.81;;;9.12;100.00
36748;BME280;22716;51.556;5.080;2023-04-01T05:47:36;98771.28;;;9.07;100.00
36748;BME280;22716;51.556;5.080;2023-04-01T05:50:09;98785.88;;;9.12;100.00
36748;BME280;22716;51.556;5.080;2023-04-01T05:52:39;98784.16;;;9.11;100.00
36748;BME280;22716;51.556;5.080;2023-04-01T05:55:08;98785.75;;;9.15;100.00
36748;BME280;22716;51.556;5.080;2023-04-01T05:57:37;98762.72;;;9.01;100.00
36748;BME280;22716;51.556;5.080;2023-04-01T06:00:07;98790.97;;;9.15;100.00
36748;BME280;22716;51.556;5.080;2023-04-01T06:02:36;98790.97;;;9.15;100.00
36748;BME280;22716;51.556;5.080;2023-04-01T06:05:17;98801.31;;;9.18;100.00
36748;BME280;22716;51.556;5.080;2023-04-01T06:07:46;98805.72;;;9.16;100.00
36748;BME280;22716;51.556;5.080;2023-04-01T06:10:16;98806.53;;;9.18;100.00
36748;BME280;22716;51.556;5.080;2023-04-01T06:12:56;98816.88;;;9.21;100.00
36748;BME280;22716;51.556;5.080;2023-04-01T06:15:36;98837.78;;;9.21;100.00
36748;BME280;22716;51.556;5.080;2023-04-01T06:18:28;98826.38;;;9.24;100.00
36748;BME280;22716;51.556;5.080;2023-04-01T06:21:16;98823.97;;;9.18;100.00
36748;BME280;22716;51.556;5.080;2023-04-01T06:23:58;98839.47;;;9.22;100.00
36748;BME280;22716;51.556;5.080;2023-04-01T06:26:36;98853.25;;;9.27;100.00
36748;BME280;22716;51.556;5.080;2023-04-01T06:29:27;98851.41;;;9.29;100.00
36748;BME280;22716;51.556;5.080;2023-04-01T06:35:15;98849.47;;;9.34;100.00
36748;BME280;22716;51.556;5.080;2023-04-01T06:37:59;98861.56;;;9.37;100.00
36748;BME280;22716;51.556;5.080;2023-04-01T06:40:45;98864.16;;;9.38;100.00
36748;BME280;22716;51.556;5.080;2023-04-01T06:43:25;98855.38;;;9.39;100.00
36748;BME280;22716;51.556;5.080;2023-04-01T06:46:06;98871.13;;;9.38;100.00
36748;BME280;22716;51.556;5.080;2023-04-01T06:48:56;98874.41;;;9.43;100.00
36748;BME280;22716;51.556;5.080;2023-04-01T06:51:38;98878.91;;;9.39;100.00
36748;BME280;22716;51.556;5.080;2023-04-01T06:54:17;98876.94;;;9.46;100.00
36748;BME280;22716;51.556;5.080;2023-04-01T06:56:52;98891.59;;;9.50;100.00
36748;BME280;22716;51.556;5.080;2023-04-01T06:59:28;98877.63;;;9.51;100.00
36748;BME280;22716;51.556;5.080;2023-04-01T07:02:00;98882.00;;;9.50;100.00
36748;BME280;22716;51.556;5.080;2023-04-01T07:04:35;98896.59;;;9.56;100.00
36748;BME280;22716;51.556;5.080;2023-04-01T07:07:14;98889.66;;;9.55;100.00
36748;BME280;22716;51.556;5.080;2023-04-01T07:09:50;98896.66;;;9.54;100.00
36748;BME280;22716;51.556;5.080;2023-04-01T07:12:28;98900.84;;;9.58;100.00
36748;BME280;22716;51.556;5.080;2023-04-01T07:15:05;98907.81;;;9.60;100.00
36748;BME280;22716;51.556;5.080;2023-04-01T07:17:42;98918.16;;;9.63;100.00
36748;BME280;22716;51.556;5.080;2023-04-01T07:20:17;98921.56;;;9.65;100.00
36748;BME280;22716;51.556;5.080;2023-04-01T07:22:50;98913.03;;;9.60;100.00
36748;BME280;22716;51.556;5.080;2023-04-01T07:25:27;98922.41;;;9.65;100.00
36748;BME280;22716;51.556;5.080;2023-04-01T07:28:02;98925.06;;;9.64;100.00
36748;BME280;22716;51.556;5.080;2023-04-01T07:30:39;98931.81;;;9.69;100.00
36748;BME280;22716;51.556;5.080;2023-04-01T07:33:16;98932.66;;;9.71;100.00
36748;BME280;22716;51.556;5.080;2023-04-01T07:35:52;98945.53;;;9.76;100.00
36748;BME280;22716;51.556;5.080;2023-04-01T07:38:35;98944.69;;;9.75;100.00
36748;BME280;22716;51.556;5.080;2023-04-01T07:41:16;98943.72;;;9.78;100.00
36748;BME280;22716;51.556;5.080;2023-04-01T07:43:57;98949.06;;;9.75;100.00
36748;BME280;22716;51.556;5.080;2023-04-01T07:49:50;98960.22;;;9.80;100.00
36748;BME280;22716;51.556;5.080;2023-04-01T07:52:29;98955.78;;;9.82;100.00
36748;BME280;22716;51.556;5.080;2023-04-01T07:55:05;98961.69;;;9.87;100.00
36748;BME280;22716;51.556;5.080;2023-04-01T07:57:46;98979.88;;;9.90;100.00
36748;BME280;22716;51.556;5.080;2023-04-01T08:00:20;98974.53;;;9.93;100.00
36748;BME280;22716;51.556;5.080;2023-04-01T08:03:15;98974.53;;;9.93;100.00
36748;BME280;22716;51.556;5.080;2023-04-01T08:05:53;98981.88;;;10.06;100.00
36748;BME280;22716;51.556;5.080;2023-04-01T08:08:34;98989.66;;;10.08;100.00
36748;BME280;22716;51.556;5.080;2023-04-01T08:11:15;99000.00;;;10.11;100.00
36748;BME280;22716;51.556;5.080;2023-04-01T08:14:01;99005.22;;;10.12;100.00
36748;BME280;22716;51.556;5.080;2023-04-01T08:16:38;99000.69;;;10.18;100.00
36748;BME280;22716;51.556;5.080;2023-04-01T08:19:22;98999.59;;;10.23;100.00
36748;BME280;22716;51.556;5.080;2023-04-01T08:22:05;99007.38;;;10.25;100.00
36748;BME280;22716;51.556;5.080;2023-04-01T08:24:41;98998.84;;;10.20;100.00
36748;BME280;22716;51.556;5.080;2023-04-01T08:27:17;99004.94;;;10.20;100.00
36748;BME280;22716;51.556;5.080;2023-04-01T08:29:58;99019.56;;;10.26;100.00
36748;BME280;22716;51.556;5.080;2023-04-01T08:32:31;99023.25;;;10.20;100.00
36748;BME280;22716;51.556;5.080;2023-04-01T08:35:08;99019.91;;;10.17;100.00
36748;BME280;22716;51.556;5.080;2023-04-01T08:37:40;99015.63;;;10.14;100.00
36748;BME280;22716;51.556;5.080;2023-04-01T08:40:36;99031.09;;;10.20;100.00
36748;BME280;22716;51.556;5.080;2023-04-01T08:43:10;99035.56;;;10.18;100.00
36748;BME280;22716;51.556;5.080;2023-04-01T08:46:07;99038.09;;;10.20;100.00
36748;BME280;22716;51.556;5.080;2023-04-01T08:49:04;99043.56;;;10.13;100.00
36748;BME280;22716;51.556;5.080;2023-04-01T08:52:03;99045.50;;;10.07;100.00
36748;BME280;22716;51.556;5.080;2023-04-01T08:54:46;99048.09;;;10.08;100.00
36748;BME280;22716;51.556;5.080;2023-04-01T08:57:25;99056.09;;;10.04;100.00
36748;BME280;22716;51.556;5.080;2023-04-01T09:00:13;99054.34;;;10.04;100.00
36748;BME280;22716;51.556;5.080;2023-04-01T09:03:15;99062.03;;;10.09;100.00
36748;BME280;22716;51.556;5.080;2023-04-01T09:06:26;99059.41;;;10.09;100.00
36748;BME280;22716;51.556;5.080;2023-04-01T09:09:22;99067.94;;;10.16;100.00
36748;BME280;22716;51.556;5.080;2023-04-01T09:12:24;99080.16;;;10.15;100.00
36748;BME280;22716;51.556;5.080;2023-04-01T09:21:14;99079.22;;;10.16;100.00
36748;BME280;22716;51.556;5.080;2023-04-01T09:26:48;99067.06;;;10.15;100.00
36748;BME280;22716;51.556;5.080;2023-04-01T09:29:46;99085.09;;;10.23;100.00
36748;BME280;22716;51.556;5.080;2023-04-01T09:32:36;99079.88;;;10.23;100.00
36748;BME280;22716;51.556;5.080;2023-04-01T09:35:23;99090.34;;;10.23;100.00
36748;BME280;22716;51.556;5.080;2023-04-01T09:37:57;99076.00;;;10.08;100.00
36748;BME280;22716;51.556;5.080;2023-04-01T09:40:37;99090.53;;;10.18;100.00
36748;BME280;22716;51.556;5.080;2023-04-01T09:43:30;99083.94;;;10.06;100.00
36748;BME280;22716;51.556;5.080;2023-04-01T09:46:14;99101.38;;;10.06;100.00
36748;BME280;22716;51.556;5.080;2023-04-01T09:52:04;99101.53;;;10.01;100.00
36748;BME280;22716;51.556;5.080;2023-04-01T09:54:54;99097.06;;;10.05;100.00
36748;BME280;22716;51.556;5.080;2023-04-01T09:57:59;99111.75;;;10.09;100.00
36748;BME280;22716;51.556;5.080;2023-04-01T10:01:00;99115.06;;;10.14;100.00
36748;BME280;22716;51.556;5.080;2023-04-01T10:04:16;99118.84;;;10.05;100.00
36748;BME280;22716;51.556;5.080;2023-04-01T10:07:25;99109.50;;;9.98;100.00
36748;BME280;22716;51.556;5.080;2023-04-01T10:10:23;99121.47;;;10.05;100.00
36748;BME280;22716;51.556;5.080;2023-04-01T10:13:12;99125.72;;;10.08;100.00
36748;BME280;22716;51.556;5.080;2023-04-01T10:16:03;99124.84;;;10.09;100.00
36748;BME280;22716;51.556;5.080;2023-04-01T10:22:07;99136.09;;;10.11;100.00
36748;BME280;22716;51.556;5.080;2023-04-01T10:24:56;99126.63;;;10.07;100.00
36748;BME280;22716;51.556;5.080;2023-04-01T10:27:56;99142.19;;;10.11;100.00
36748;BME280;22716;51.556;5.080;2023-04-01T10:30:55;99140.38;;;10.13;100.00
36748;BME280;22716;51.556;5.080;2023-04-01T10:36:43;99147.66;;;10.04;100.00
36748;BME280;22716;51.556;5.080;2023-04-01T10:46:11;99158.84;;;10.09;100.00
36748;BME280;22716;51.556;5.080;2023-04-01T10:54:56;99158.75;;;10.12;100.00
36748;BME280;22716;51.556;5.080;2023-04-01T10:58:08;99156.91;;;10.16;100.00
36748;BME280;22716;51.556;5.080;2023-04-01T11:01:07;99154.03;;;10.22;100.00
36748;BME280;22716;51.556;5.080;2023-04-01T11:04:12;99174.84;;;10.26;100.00
36748;BME280;22716;51.556;5.080;2023-04-01T11:07:09;99174.16;;;10.21;100.00
36748;BME280;22716;51.556;5.080;2023-04-01T11:16:13;99174.16;;;10.21;100.00
36748;BME280;22716;51.556;5.080;2023-04-01T11:19:14;99178.47;;;10.22;100.00
36748;BME280;22716;51.556;5.080;2023-04-01T11:25:11;99163.13;;;10.11;100.00
36748;BME280;22716;51.556;5.080;2023-04-01T11:28:17;99188.81;;;10.25;100.00
36748;BME280;22716;51.556;5.080;2023-04-01T11:31:03;99192.38;;;10.24;100.00
36748;BME280;22716;51.556;5.080;2023-04-01T11:33:38;99191.41;;;10.27;100.00
36748;BME280;22716;51.556;5.080;2023-04-01T11:36:24;99198.97;;;10.34;100.00
36748;BME280;22716;51.556;5.080;2023-04-01T11:39:07;99193.16;;;10.26;100.00
36748;BME280;22716;51.556;5.080;2023-04-01T11:41:45;99197.59;;;10.24;100.00
36748;BME280;22716;51.556;5.080;2023-04-01T11:44:20;99199.03;;;10.33;100.00
36748;BME280;22716;51.556;5.080;2023-04-01T11:47:08;99213.59;;;10.40;100.00
36748;BME280;22716;51.556;5.080;2023-04-01T11:49:55;99184.44;;;10.26;100.00
36748;BME280;22716;51.556;5.080;2023-04-01T11:52:55;99216.97;;;10.43;100.00
36748;BME280;22716;51.556;5.080;2023-04-01T11:55:35;99220.59;;;10.39;100.00
36748;BME280;22716;51.556;5.080;2023-04-01T11:58:28;99224.09;;;10.40;100.00
36748;BME280;22716;51.556;5.080;2023-04-01T12:01:08;99228.25;;;10.45;100.00
36748;BME280;22716;51.556;5.080;2023-04-01T12:04:11;99234.31;;;10.47;100.00
36748;BME280;22716;51.556;5.080;2023-04-01T12:06:53;99239.53;;;10.47;100.00
36748;BME280;22716;51.556;5.080;2023-04-01T12:09:33;99239.53;;;10.47;100.00
36748;BME280;22716;51.556;5.080;2023-04-01T12:12:15;99241.22;;;10.48;100.00
36748;BME280;22716;51.556;5.080;2023-04-01T12:14:59;99235.09;;;10.49;100.00
36748;BME280;22716;51.556;5.080;2023-04-01T12:17:36;99250.97;;;10.45;100.00
36748;BME280;22716;51.556;5.080;2023-04-01T12:20:34;99257.97;;;10.44;100.00
36748;BME280;22716;51.556;5.080;2023-04-01T12:23:20;99244.06;;;10.42;100.00
36748;BME280;22716;51.556;5.080;2023-04-01T12:26:04;99253.75;;;10.40;100.00
36748;BME280;22716;51.556;5.080;2023-04-01T12:28:46;99259.72;;;10.44;100.00
36748;BME280;22716;51.556;5.080;2023-04-01T12:31:31;99263.22;;;10.44;100.00
36748;BME280;22716;51.556;5.080;2023-04-01T12:37:09;99265.47;;;10.30;100.00
36748;BME280;22716;51.556;5.080;2023-04-01T12:39:56;99244.94;;;10.18;100.00
36748;BME280;22716;51.556;5.080;2023-04-01T12:42:39;99263.03;;;10.24;100.00
36748;BME280;22716;51.556;5.080;2023-04-01T12:45:31;99275.06;;;10.30;100.00
36748;BME280;22716;51.556;5.080;2023-04-01T12:48:36;99280.19;;;10.33;100.00
36748;BME280;22716;51.556;5.080;2023-04-01T12:51:28;99278.59;;;10.29;100.00
36748;BME280;22716;51.556;5.080;2023-04-01T12:54:25;99282.81;;;10.33;100.00
36748;BME280;22716;51.556;5.080;2023-04-01T12:57:13;99275.38;;;10.21;100.00
36748;BME280;22716;51.556;5.080;2023-04-01T13:00:03;99294.28;;;10.29;100.00
36748;BME280;22716;51.556;5.080;2023-04-01T13:02:45;99289.91;;;10.29;100.00
36748;BME280;22716;51.556;5.080;2023-04-01T13:05:37;99295.03;;;10.32;100.00
36748;BME280;22716;51.556;5.080;2023-04-01T13:08:22;99295.16;;;10.29;100.00
36748;BME280;22716;51.556;5.080;2023-04-01T13:11:09;99305.53;;;10.32;100.00
36748;BME280;22716;51.556;5.080;2023-04-01T13:14:12;99302.03;;;10.32;100.00
36748;BME280;22716;51.556;5.080;2023-04-01T13:16:50;99304.66;;;10.32;100.00
36748;BME280;22716;51.556;5.080;2023-04-01T13:19:25;99309.84;;;10.33;100.00
36748;BME280;22716;51.556;5.080;2023-04-01T13:22:02;99307.34;;;10.30;100.00
36748;BME280;22716;51.556;5.080;2023-04-01T13:24:42;99311.66;;;10.31;100.00
36748;BME280;22716;51.556;5.080;2023-04-01T13:27:20;99306.72;;;10.22;100.00
36748;BME280;22716;51.556;5.080;2023-04-01T13:30:01;99314.53;;;10.24;100.00
36748;BME280;22716;51.556;5.080;2023-04-01T13:32:41;99322.41;;;10.22;100.00
36748;BME280;22716;51.556;5.080;2023-04-01T13:35:22;99326.69;;;10.25;100.00
36748;BME280;22716;51.556;5.080;2023-04-01T13:38:12;99325.69;;;10.29;100.00
36748;BME280;22716;51.556;5.080;2023-04-01T13:40:52;99317.19;;;10.22;100.00
36748;BME280;22716;51.556;5.080;2023-04-01T13:43:28;99327.53;;;10.27;100.00
36748;BME280;22716;51.556;5.080;2023-04-01T13:49:22;99336.34;;;10.24;100.00
36748;BME280;22716;51.556;5.080;2023-04-01T13:58:27;99347.81;;;10.20;100.00
36748;BME280;22716;51.556;5.080;2023-04-01T14:01:09;99346.25;;;10.15;100.00
36748;BME280;22716;51.556;5.080;2023-04-01T14:06:52;99354.84;;;10.18;100.00
36748;BME280;22716;51.556;5.080;2023-04-01T14:09:38;99352.34;;;10.15;100.00
36748;BME280;22716;51.556;5.080;2023-04-01T14:12:23;99361.97;;;10.13;100.00
36748;BME280;22716;51.556;5.080;2023-04-01T14:15:09;99372.47;;;10.11;100.00
36748;BME280;22716;51.556;5.080;2023-04-01T14:17:58;99370.72;;;10.12;100.00
36748;BME280;22716;51.556;5.080;2023-04-01T14:20:39;99369.16;;;10.06;100.00
36748;BME280;22716;51.556;5.080;2023-04-01T14:23:32;99376.94;;;10.08;100.00
36748;BME280;22716;51.556;5.080;2023-04-01T14:26:23;99379.56;;;10.08;100.00
36748;BME280;22716;51.556;5.080;2023-04-01T14:29:05;99378.66;;;10.09;100.00
36748;BME280;22716;51.556;5.080;2023-04-01T14:31:48;99374.31;;;10.08;100.00
36748;BME280;22716;51.556;5.080;2023-04-01T14:34:32;99393.38;;;10.13;100.00
36748;BME280;22716;51.556;5.080;2023-04-01T14:37:35;99384.69;;;10.11;100.00
36748;BME280;22716;51.556;5.080;2023-04-01T14:40:26;99389.88;;;10.14;100.00
36748;BME280;22716;51.556;5.080;2023-04-01T14:43:09;99392.31;;;10.19;100.00
36748;BME280;22716;51.556;5.080;2023-04-01T14:45:57;99406.25;;;10.21;100.00
36748;BME280;22716;51.556;5.080;2023-04-01T14:48:35;99365.97;;;9.97;100.00
36748;BME280;22716;51.556;5.080;2023-04-01T14:51:13;99404.69;;;10.15;100.00
36748;BME280;22716;51.556;5.080;2023-04-01T14:53:56;99404.59;;;10.18;100.00
36748;BME280;22716;51.556;5.080;2023-04-01T14:56:39;99401.38;;;10.07;100.00
36748;BME280;22716;51.556;5.080;2023-04-01T14:59:10;99423.00;;;10.15;100.00
36748;BME280;22716;51.556;5.080;2023-04-01T15:01:47;99412.44;;;10.18;100.00
36748;BME280;22716;51.556;5.080;2023-04-01T15:04:50;99416.75;;;10.19;100.00